createdAt,value
2023-03-27T00:02:08.040Z,7.50
2023-03-27T00:05:00.895Z,5.30
2023-03-27T00:07:38.659Z,4.47
2023-03-27T00:10:24.258Z,7.37
2023-03-27T00:13:09.997Z,7.43
2023-03-27T00:16:00.374Z,7.87
2023-03-27T00:18:32.921Z,7.47
2023-03-27T00:21:06.096Z,5.27
2023-03-27T00:23:37.643Z,4.70
2023-03-27T00:26:09.642Z,7.70
2023-03-27T00:28:39.916Z,6.40
2023-03-27T00:31:15.293Z,8.07
2023-03-27T00:33:49.386Z,5.93
2023-03-27T00:36:19.620Z,6.67
2023-03-27T00:38:53.738Z,5.53
2023-03-27T00:41:27.192Z,6.13
2023-03-27T00:44:00.041Z,6.03
2023-03-27T00:46:41.796Z,3.10
2023-03-27T00:49:18.595Z,5.93
2023-03-27T00:51:50.677Z,9.50
2023-03-27T00:54:30.685Z,8.60
2023-03-27T00:57:08.126Z,8.17
2023-03-27T00:59:53.110Z,9.17
2023-03-27T01:02:29.570Z,9.63
2023-03-27T01:05:03.009Z,7.03
2023-03-27T01:07:35.479Z,6.00
2023-03-27T01:10:07.757Z,7.90
2023-03-27T01:12:50.639Z,5.57
2023-03-27T01:15:38.649Z,6.83
2023-03-27T01:18:35.965Z,9.60
2023-03-27T01:21:55.426Z,8.10
2023-03-27T01:25:09.978Z,5.47
2023-03-27T01:28:12.559Z,6.43
2023-03-27T01:30:53.626Z,3.40
2023-03-27T01:34:31.640Z,6.10
2023-03-27T01:37:39.891Z,6.47
2023-03-27T01:40:19.919Z,6.13
2023-03-27T01:42:57.244Z,6.27
2023-03-27T01:45:37.827Z,3.90
2023-03-27T01:50:52.473Z,7.93
2023-03-27T01:53:29.751Z,7.67
2023-03-27T01:56:12.335Z,5.40
2023-03-27T01:58:51.478Z,7.57
2023-03-27T02:01:31.007Z,8.07
2023-03-27T02:04:10.523Z,5.70
2023-03-27T02:06:46.291Z,8.17
2023-03-27T02:09:23.887Z,6.47
2023-03-27T02:12:01.442Z,4.43
2023-03-27T02:14:39.324Z,10.97
2023-03-27T02:17:14.732Z,6.80
2023-03-27T02:19:54.554Z,6.00
2023-03-27T02:22:37.259Z,5.87
2023-03-27T02:25:32.972Z,7.33
2023-03-27T02:28:31.065Z,7.10
2023-03-27T02:31:33.303Z,5.53
2023-03-27T02:34:29.892Z,8.03
2023-03-27T02:37:08.880Z,6.27
2023-03-27T02:39:52.361Z,7.57
2023-03-27T02:42:29.321Z,6.80
2023-03-27T02:45:13.920Z,5.27
2023-03-27T02:47:50.459Z,7.97
2023-03-27T02:50:30.405Z,9.53
2023-03-27T02:53:07.558Z,6.73
2023-03-27T02:55:44.812Z,8.47
2023-03-27T02:58:33.686Z,6.47
2023-03-27T03:01:15.329Z,5.57
2023-03-27T03:03:56.779Z,3.93
2023-03-27T03:06:33.128Z,4.07
2023-03-27T03:09:07.474Z,6.80
2023-03-27T03:11:43.925Z,4.90
2023-03-27T03:14:18.563Z,5.73
2023-03-27T03:16:53.835Z,7.17
2023-03-27T03:19:28.514Z,5.73
2023-03-27T03:22:02.229Z,4.77
2023-03-27T03:24:38.962Z,8.00
2023-03-27T03:27:14.836Z,4.80
2023-03-27T03:29:59.409Z,6.67
2023-03-27T03:32:35.345Z,9.33
2023-03-27T03:35:09.852Z,6.20
2023-03-27T03:37:43.094Z,5.67
2023-03-27T03:40:16.052Z,11.37
2023-03-27T03:43:00.529Z,7.53
2023-03-27T03:45:35.080Z,6.90
2023-03-27T03:48:08.809Z,12.07
2023-03-27T03:50:40.362Z,10.70
2023-03-27T03:53:20.461Z,6.40
2023-03-27T03:55:58.899Z,7.50
2023-03-27T03:58:34.844Z,8.57
2023-03-27T04:01:15.609Z,6.23
2023-03-27T04:03:49.733Z,4.07
2023-03-27T04:06:21.170Z,10.30
2023-03-27T04:08:50.498Z,7.77
2023-03-27T04:11:19.521Z,7.60
2023-03-27T04:13:48.290Z,5.80
2023-03-27T04:16:17.238Z,7.00
2023-03-27T04:18:50.784Z,7.07
2023-03-27T04:21:19.771Z,11.83
2023-03-27T04:23:49.589Z,6.40
2023-03-27T04:26:18.504Z,8.80
2023-03-27T04:28:52.046Z,5.87
2023-03-27T04:31:21.206Z,7.83
2023-03-27T04:33:53.110Z,6.33
2023-03-27T04:36:22.823Z,10.93
2023-03-27T04:38:51.825Z,8.60
2023-03-27T04:41:21.426Z,7.83
2023-03-27T04:43:50.111Z,7.87
2023-03-27T04:46:18.916Z,5.60
2023-03-27T04:48:47.968Z,9.03
2023-03-27T04:51:18.519Z,8.87
2023-03-27T04:53:47.450Z,9.27
2023-03-27T04:56:17.722Z,8.37
2023-03-27T04:58:47.059Z,9.90
2023-03-27T05:01:18.071Z,7.67
2023-03-27T05:03:49.273Z,7.37
2023-03-27T05:06:22.191Z,10.30
2023-03-27T05:08:52.259Z,9.27
2023-03-27T05:11:26.373Z,10.70
2023-03-27T05:13:57.638Z,8.47
2023-03-27T05:16:29.470Z,7.57
2023-03-27T05:18:58.823Z,5.27
2023-03-27T05:21:31.917Z,7.63
2023-03-27T05:24:03.687Z,7.67
2023-03-27T05:26:35.299Z,3.17
2023-03-27T05:29:06.080Z,3.77
2023-03-27T05:31:51.803Z,4.47
2023-03-27T05:34:28.351Z,5.20
2023-03-27T05:37:06.098Z,4.83
2023-03-27T05:39:39.680Z,1.07
2023-03-27T05:42:18.751Z,4.67
2023-03-27T05:45:09.684Z,4.10
2023-03-27T05:47:58.226Z,3.53
2023-03-27T05:50:37.264Z,8.73
2023-03-27T05:53:15.852Z,3.67
2023-03-27T05:55:46.454Z,5.07
2023-03-27T05:58:17.399Z,9.13
2023-03-27T06:00:59.681Z,4.20
2023-03-27T06:03:35.388Z,5.67
2023-03-27T06:06:11.387Z,3.67
2023-03-27T06:08:42.361Z,4.77
2023-03-27T06:11:12.933Z,7.00
2023-03-27T06:13:46.239Z,2.70
2023-03-27T06:16:24.967Z,4.23
2023-03-27T06:18:56.951Z,2.83
2023-03-27T06:21:28.072Z,4.97
2023-03-27T06:24:01.842Z,4.87
2023-03-27T06:26:41.725Z,6.90
2023-03-27T06:29:16.896Z,6.80
2023-03-27T06:31:47.106Z,8.53
2023-03-27T06:34:27.171Z,6.67
2023-03-27T06:37:00.083Z,8.20
2023-03-27T06:39:32.612Z,4.37
2023-03-27T06:42:02.195Z,6.13
2023-03-27T06:44:41.556Z,10.70
2023-03-27T06:47:10.996Z,5.77
2023-03-27T06:49:48.898Z,6.97
2023-03-27T06:52:18.302Z,6.93
2023-03-27T06:54:50.516Z,6.17
2023-03-27T06:57:20.560Z,12.73
2023-03-27T06:59:50.128Z,7.20
2023-03-27T07:02:19.691Z,7.20
2023-03-27T07:05:01.617Z,5.13
2023-03-27T07:07:37.661Z,6.30
2023-03-27T07:10:10.861Z,7.47
2023-03-27T07:12:55.686Z,6.20
2023-03-27T07:15:31.397Z,9.23
2023-03-27T07:18:03.286Z,7.23
2023-03-27T07:20:41.539Z,4.97
2023-03-27T07:23:12.642Z,8.43
2023-03-27T07:25:53.074Z,7.07
2023-03-27T07:28:55.334Z,5.97
2023-03-27T07:31:39.471Z,7.47
2023-03-27T07:34:16.781Z,8.10
2023-03-27T07:36:47.571Z,7.90
2023-03-27T07:39:17.414Z,4.77
2023-03-27T07:41:49.744Z,6.13
2023-03-27T07:45:09.074Z,8.27
2023-03-27T07:47:44.101Z,4.00
2023-03-27T07:50:18.438Z,4.27
2023-03-27T07:53:33.318Z,7.70
2023-03-27T07:56:05.633Z,6.67
2023-03-27T07:58:45.639Z,3.23
2023-03-27T08:01:17.429Z,5.07
2023-03-27T08:03:49.018Z,5.43
2023-03-27T08:06:20.075Z,6.80
2023-03-27T08:09:05.453Z,4.83
2023-03-27T08:11:41.380Z,9.90
2023-03-27T08:15:03.489Z,4.50
2023-03-27T08:17:36.930Z,6.43
2023-03-27T08:20:15.893Z,6.37
2023-03-27T08:22:57.513Z,3.03
2023-03-27T08:25:42.272Z,2.90
2023-03-27T08:28:13.615Z,2.80
2023-03-27T08:30:48.276Z,7.03
2023-03-27T08:33:19.774Z,3.60
2023-03-27T08:36:02.112Z,5.37
2023-03-27T08:38:40.082Z,3.47
2023-03-27T08:41:27.225Z,4.93
2023-03-27T08:43:58.292Z,3.83
2023-03-27T08:46:43.172Z,5.80
2023-03-27T08:49:24.527Z,2.70
2023-03-27T08:52:03.012Z,5.03
2023-03-27T08:54:42.869Z,3.73
2023-03-27T08:57:21.695Z,4.10
2023-03-27T09:00:00.829Z,5.93
2023-03-27T09:02:46.577Z,6.67
2023-03-27T09:05:44.423Z,5.60
2023-03-27T09:08:32.484Z,5.10
2023-03-27T09:11:16.223Z,6.67
2023-03-27T09:13:49.437Z,4.83
2023-03-27T09:16:29.200Z,4.73
2023-03-27T09:19:13.519Z,5.00
2023-03-27T09:21:51.497Z,3.10
2023-03-27T09:24:33.123Z,6.53
2023-03-27T09:27:17.184Z,5.70
2023-03-27T09:29:48.336Z,4.50
2023-03-27T09:32:18.724Z,3.13
2023-03-27T09:34:49.729Z,2.40
2023-03-27T09:37:56.075Z,3.57
2023-03-27T09:40:35.078Z,1.80
2023-03-27T09:43:13.843Z,2.97
2023-03-27T09:45:44.925Z,2.90
2023-03-27T09:48:28.840Z,3.37
2023-03-27T09:51:03.144Z,4.23
2023-03-27T09:53:33.868Z,6.33
2023-03-27T09:56:43.250Z,1.63
2023-03-27T09:59:31.170Z,3.40
2023-03-27T10:02:08.051Z,1.60
2023-03-27T10:04:39.341Z,3.20
2023-03-27T10:07:30.512Z,2.37
2023-03-27T10:10:29.803Z,4.77
2023-03-27T10:13:24.155Z,3.70
2023-03-27T10:16:02.602Z,3.50
2023-03-27T10:18:36.564Z,3.27
2023-03-27T10:21:14.239Z,6.03
2023-03-27T10:24:06.413Z,2.10
2023-03-27T10:26:41.682Z,4.60
2023-03-27T10:29:40.984Z,4.67
2023-03-27T10:32:43.059Z,3.73
2023-03-27T10:35:41.476Z,5.40
2023-03-27T10:38:18.196Z,4.90
2023-03-27T10:44:41.198Z,2.23
2023-03-27T10:47:22.820Z,3.90
2023-03-27T10:53:56.426Z,2.50
2023-03-27T10:56:58.460Z,3.40
2023-03-27T10:59:43.120Z,1.87
2023-03-27T11:02:29.655Z,3.40
2023-03-27T11:05:06.120Z,2.33
2023-03-27T11:07:43.338Z,3.70
2023-03-27T11:10:32.356Z,4.90
2023-03-27T11:13:15.343Z,1.70
2023-03-27T11:15:51.859Z,4.17
2023-03-27T11:18:41.887Z,5.90
2023-03-27T11:21:17.530Z,2.87
2023-03-27T11:24:00.737Z,5.33
2023-03-27T11:26:42.259Z,4.10
2023-03-27T11:29:48.941Z,5.43
2023-03-27T11:32:44.138Z,3.07
2023-03-27T11:35:19.504Z,3.30
2023-03-27T11:37:56.705Z,5.10
2023-03-27T11:40:43.985Z,6.20
2023-03-27T11:43:14.841Z,3.50
2023-03-27T11:46:05.258Z,6.50
2023-03-27T11:49:04.174Z,4.63
2023-03-27T11:51:58.448Z,4.47
2023-03-27T11:55:09.012Z,4.90
2023-03-27T11:58:18.399Z,3.30
2023-03-27T12:01:46.911Z,7.60
2023-03-27T12:04:54.621Z,7.87
2023-03-27T12:07:48.425Z,2.93
2023-03-27T12:10:34.058Z,5.70
2023-03-27T12:14:17.675Z,8.90
2023-03-27T12:17:45.653Z,5.30
2023-03-27T12:20:52.835Z,4.40
2023-03-27T12:24:01.857Z,3.53
2023-03-27T12:26:57.944Z,2.70
2023-03-27T12:29:51.443Z,2.77
2023-03-27T12:32:57.686Z,3.60
2023-03-27T12:35:43.861Z,2.83
2023-03-27T12:38:30.875Z,5.80
2023-03-27T12:41:14.120Z,3.43
2023-03-27T12:43:51.637Z,5.00
2023-03-27T12:46:39.529Z,5.13
2023-03-27T12:49:48.088Z,5.70
2023-03-27T12:52:23.003Z,3.57
2023-03-27T12:55:42.957Z,3.43
2023-03-27T12:58:35.752Z,5.00
2023-03-27T13:01:11.224Z,3.00
2023-03-27T13:04:18.077Z,5.37
2023-03-27T13:07:03.132Z,4.20
2023-03-27T13:10:10.792Z,6.97
2023-03-27T13:13:08.017Z,1.70
2023-03-27T13:16:21.696Z,7.43
2023-03-27T13:19:37.159Z,2.17
2023-03-27T13:23:01.393Z,2.07
2023-03-27T13:26:01.355Z,3.27
2023-03-27T13:28:38.251Z,3.67
2023-03-27T13:31:17.200Z,5.53
2023-03-27T13:34:16.409Z,3.97
2023-03-27T13:37:06.052Z,4.93
2023-03-27T13:40:09.472Z,3.80
2023-03-27T13:42:46.765Z,3.70
2023-03-27T13:45:49.599Z,2.97
2023-03-27T13:49:47.939Z,5.53
2023-03-27T13:53:45.454Z,4.50
2023-03-27T13:56:43.149Z,4.43
2023-03-27T14:00:04.680Z,5.80
2023-03-27T14:03:54.258Z,8.33
2023-03-27T14:07:11.974Z,5.27
2023-03-27T14:10:33.697Z,5.17
2023-03-27T14:13:31.685Z,4.23
2023-03-27T14:16:38.805Z,4.10
2023-03-27T14:20:13.406Z,7.17
2023-03-27T14:26:08.637Z,4.03
2023-03-27T14:29:02.391Z,4.60
2023-03-27T14:31:37.385Z,4.90
2023-03-27T14:34:18.871Z,3.53
2023-03-27T14:36:52.722Z,1.97
2023-03-27T14:39:35.582Z,4.37
2023-03-27T14:42:15.486Z,4.03
2023-03-27T14:44:58.918Z,5.83
2023-03-27T14:47:32.658Z,3.20
2023-03-27T14:50:03.978Z,4.37
2023-03-27T14:52:36.862Z,3.40
2023-03-27T14:55:12.923Z,4.10
2023-03-27T14:57:47.104Z,5.03
2023-03-27T15:00:28.124Z,4.10
2023-03-27T15:02:59.067Z,2.77
2023-03-27T15:05:34.229Z,4.70
2023-03-27T15:08:27.349Z,6.17
2023-03-27T15:10:58.679Z,8.13
2023-03-27T15:13:41.960Z,3.30
2023-03-27T15:16:24.175Z,3.73
2023-03-27T15:19:10.073Z,5.87
2023-03-27T15:21:55.258Z,2.97
2023-03-27T15:24:37.360Z,2.10
2023-03-27T15:27:08.460Z,2.30
2023-03-27T15:29:42.916Z,3.40
2023-03-27T15:32:23.017Z,2.47
2023-03-27T15:35:06.687Z,2.50
2023-03-27T15:37:37.809Z,2.70
2023-03-27T15:40:52.392Z,4.23
2023-03-27T15:44:28.548Z,1.97
2023-03-27T15:47:01.164Z,2.67
2023-03-27T15:49:39.011Z,3.47
2023-03-27T15:52:40.081Z,3.20
2023-03-27T15:55:43.384Z,2.13
2023-03-27T15:58:32.341Z,3.23
2023-03-27T16:01:19.085Z,4.47
2023-03-27T16:04:06.074Z,4.97
2023-03-27T16:07:21.976Z,3.93
2023-03-27T16:09:59.645Z,3.20
2023-03-27T16:12:34.721Z,5.90
2023-03-27T16:15:23.312Z,3.47
2023-03-27T16:17:53.936Z,5.40
2023-03-27T16:20:54.599Z,5.27
2023-03-27T16:23:38.244Z,4.63
2023-03-27T16:26:27.363Z,4.37
2023-03-27T16:29:12.843Z,3.53
2023-03-27T16:31:43.604Z,4.13
2023-03-27T16:34:23.251Z,2.30
2023-03-27T16:37:10.570Z,4.47
2023-03-27T16:39:43.021Z,1.73
2023-03-27T16:42:33.449Z,2.97
2023-03-27T16:45:16.975Z,3.67
2023-03-27T16:47:51.543Z,4.57
2023-03-27T16:50:32.850Z,3.80
2023-03-27T16:53:11.121Z,5.33
2023-03-27T16:55:45.170Z,6.90
2023-03-27T16:58:15.703Z,4.73
2023-03-27T17:01:15.526Z,5.63
2023-03-27T17:04:16.837Z,8.63
2023-03-27T17:06:52.465Z,5.87
2023-03-27T17:09:23.908Z,8.93
2023-03-27T17:11:59.449Z,7.03
2023-03-27T17:14:33.337Z,6.87
2023-03-27T17:17:16.782Z,7.87
2023-03-27T17:20:17.347Z,7.13
2023-03-27T17:22:54.988Z,7.53
2023-03-27T17:25:31.180Z,9.03
2023-03-27T17:28:07.502Z,6.90
2023-03-27T17:30:42.717Z,8.87
2023-03-27T17:33:17.193Z,10.40
2023-03-27T17:36:03.494Z,6.90
2023-03-27T17:38:46.187Z,11.57
2023-03-27T17:41:17.743Z,8.20
2023-03-27T17:43:49.955Z,6.83
2023-03-27T17:46:19.043Z,8.87
2023-03-27T17:48:49.353Z,6.60
2023-03-27T17:51:20.888Z,7.13
2023-03-27T17:53:50.932Z,6.00
2023-03-27T17:59:11.895Z,9.50
2023-03-27T18:01:55.762Z,13.70
2023-03-27T18:04:31.493Z,9.43
2023-03-27T18:07:05.835Z,9.00
2023-03-27T18:09:53.206Z,8.83
2023-03-27T18:13:05.474Z,9.83
2023-03-27T18:15:39.946Z,14.80
2023-03-27T18:18:35.629Z,13.90
2023-03-27T18:21:36.190Z,10.53
2023-03-27T18:24:48.261Z,13.60
2023-03-27T18:27:36.250Z,9.67
2023-03-27T18:30:09.489Z,11.13
2023-03-27T18:32:49.579Z,11.47
2023-03-27T18:35:44.875Z,9.87
2023-03-27T18:38:18.092Z,12.73
2023-03-27T18:40:50.014Z,9.07
2023-03-27T18:43:23.342Z,12.00
2023-03-27T18:46:12.002Z,9.27
2023-03-27T18:48:54.270Z,8.93
2023-03-27T18:51:33.498Z,13.27
2023-03-27T18:54:10.530Z,9.70
2023-03-27T18:56:40.433Z,13.37
2023-03-27T18:59:49.316Z,13.27
2023-03-27T19:02:23.002Z,12.53
2023-03-27T19:05:08.520Z,5.57
2023-03-27T19:07:45.019Z,10.63
2023-03-27T19:13:44.281Z,12.50
2023-03-27T19:16:17.593Z,13.63
2023-03-27T19:18:53.906Z,10.20
2023-03-27T19:21:31.744Z,14.17
2023-03-27T19:24:10.078Z,9.07
2023-03-27T19:26:44.905Z,6.63
2023-03-27T19:29:18.615Z,8.00
2023-03-27T19:31:53.038Z,11.00
2023-03-27T19:34:42.004Z,10.90
2023-03-27T19:37:20.204Z,11.13
2023-03-27T19:40:33.125Z,8.70
2023-03-27T19:43:30.378Z,8.40
2023-03-27T19:46:16.135Z,16.83
2023-03-27T19:48:53.059Z,13.87
2023-03-27T19:51:29.658Z,9.83
2023-03-27T19:54:03.709Z,7.83
2023-03-27T19:56:36.592Z,12.90
2023-03-27T19:59:08.559Z,11.87
2023-03-27T20:01:58.755Z,9.60
2023-03-27T20:04:33.187Z,11.60
2023-03-27T20:07:07.283Z,11.93
2023-03-27T20:09:53.246Z,10.80
2023-03-27T20:12:32.930Z,16.83
2023-03-27T20:15:11.888Z,15.90
2023-03-27T20:17:43.688Z,10.23
2023-03-27T20:20:14.619Z,13.70
2023-03-27T20:22:56.999Z,15.57
2023-03-27T20:25:34.264Z,10.30
2023-03-27T20:28:29.631Z,14.17
2023-03-27T20:31:09.202Z,9.10
2023-03-27T20:33:39.000Z,13.10
2023-03-27T20:36:10.521Z,14.73
2023-03-27T20:38:40.531Z,10.30
2023-03-27T20:41:16.405Z,8.43
2023-03-27T20:43:47.806Z,10.43
2023-03-27T20:46:19.099Z,8.30
2023-03-27T20:48:54.140Z,8.70
2023-03-27T20:51:32.666Z,10.67
2023-03-27T20:54:02.482Z,9.63
2023-03-27T20:56:45.202Z,9.97
2023-03-27T20:59:41.763Z,9.60
2023-03-27T21:02:44.679Z,10.57
2023-03-27T21:05:17.145Z,10.67
2023-03-27T21:07:53.242Z,8.20
2023-03-27T21:10:30.700Z,9.87
2023-03-27T21:13:02.586Z,8.67
2023-03-27T21:15:33.997Z,8.13
2023-03-27T21:18:04.435Z,10.17
2023-03-27T21:20:35.453Z,7.77
2023-03-27T21:23:05.886Z,10.37
2023-03-27T21:25:37.172Z,14.50
2023-03-27T21:28:14.596Z,12.57
2023-03-27T21:30:48.725Z,14.33
2023-03-27T21:33:19.939Z,10.00
2023-03-27T21:35:52.135Z,7.60
2023-03-27T21:38:27.000Z,7.50
2023-03-27T21:40:57.917Z,10.07
2023-03-27T21:43:44.722Z,6.33
2023-03-27T21:46:16.187Z,8.60
2023-03-27T21:48:56.204Z,9.37
2023-03-27T21:51:29.941Z,9.73
2023-03-27T21:54:03.407Z,8.70
2023-03-27T21:56:33.529Z,7.93
2023-03-27T21:59:20.086Z,14.03
2023-03-27T22:01:49.587Z,11.77
2023-03-27T22:04:21.765Z,8.90
2023-03-27T22:06:59.047Z,11.97
2023-03-27T22:09:33.280Z,8.90
2023-03-27T22:12:08.867Z,9.70
2023-03-27T22:14:42.593Z,11.57
2023-03-27T22:17:29.073Z,14.20
2023-03-27T22:20:05.820Z,11.50
2023-03-27T22:22:39.717Z,13.67
2023-03-27T22:25:13.018Z,11.53
2023-03-27T22:27:47.584Z,12.97
2023-03-27T22:31:01.790Z,13.93
2023-03-27T22:33:50.757Z,11.30
2023-03-27T22:36:24.300Z,14.07
2023-03-27T22:38:59.771Z,9.87
2023-03-27T22:41:39.680Z,12.20
2023-03-27T22:44:14.623Z,15.17
2023-03-27T22:47:05.073Z,14.23
2023-03-27T22:49:42.558Z,10.93
2023-03-27T22:52:31.655Z,15.23
2023-03-27T22:55:16.400Z,12.30
2023-03-27T22:57:53.510Z,16.63
2023-03-27T23:00:30.115Z,10.13
2023-03-27T23:03:06.675Z,14.70
2023-03-27T23:05:45.592Z,5.37
2023-03-27T23:08:19.148Z,8.07
2023-03-27T23:10:59.402Z,13.03
2023-03-27T23:13:33.698Z,11.90
2023-03-27T23:16:13.774Z,14.77
2023-03-27T23:19:00.857Z,12.20
2023-03-27T23:21:36.965Z,17.63
2023-03-27T23:24:11.590Z,11.20
2023-03-27T23:26:46.941Z,11.30
2023-03-27T23:29:18.926Z,11.80
2023-03-27T23:31:49.559Z,12.47
2023-03-27T23:34:44.293Z,8.07
2023-03-27T23:37:33.899Z,7.50
2023-03-27T23:40:05.994Z,9.47
2023-03-27T23:42:38.989Z,8.80
2023-03-27T23:45:37.098Z,10.37
2023-03-27T23:48:09.970Z,10.23
2023-03-27T23:50:43.568Z,12.17
2023-03-27T23:53:16.842Z,11.90
2023-03-27T23:55:47.536Z,12.33
2023-03-27T23:58:18.753Z,11.30
